sensor_id;sensor_type;location;lat;lon;timestamp;P1;durP1;ratioP1;P2;durP2;ratioP2
12118;SDS011;6123;48.864;9.200;2022-12-18T00:01:57;26.85;;;22.00;;
12118;SDS011;6123;48.864;9.200;2022-12-18T00:04:26;28.08;;;21.83;;
12118;SDS011;6123;48.864;9.200;2022-12-18T00:06:52;26.77;;;21.73;;
12118;SDS011;6123;48.864;9.200;2022-12-18T00:09:19;28.30;;;22.35;;
12118;SDS011;6123;48.864;9.200;2022-12-18T00:11:45;28.95;;;21.10;;
12118;SDS011;6123;48.864;9.200;2022-12-18T00:14:11;29.15;;;22.33;;
12118;SDS011;6123;48.864;9.200;2022-12-18T00:16:37;26.40;;;21.35;;
12118;SDS011;6123;48.864;9.200;2022-12-18T00:19:04;26.75;;;21.23;;
12118;SDS011;6123;48.864;9.200;2022-12-18T00:21:30;28.10;;;21.67;;
12118;SDS011;6123;48.864;9.200;2022-12-18T00:23:57;36.47;;;29.77;;
12118;SDS011;6123;48.864;9.200;2022-12-18T00:26:28;29.75;;;22.65;;
12118;SDS011;6123;48.864;9.200;2022-12-18T00:28:58;29.50;;;23.60;;
12118;SDS011;6123;48.864;9.200;2022-12-18T00:31:27;27.25;;;22.27;;
12118;SDS011;6123;48.864;9.200;2022-12-18T00:33:54;30.05;;;22.30;;
12118;SDS011;6123;48.864;9.200;2022-12-18T00:36:25;26.17;;;21.67;;
12118;SDS011;6123;48.864;9.200;2022-12-18T00:38:52;28.27;;;22.13;;
12118;SDS011;6123;48.864;9.200;2022-12-18T00:41:19;26.05;;;20.73;;
12118;SDS011;6123;48.864;9.200;2022-12-18T00:44:03;26.02;;;21.70;;
12118;SDS011;6123;48.864;9.200;2022-12-18T00:46:30;27.38;;;21.15;;
12118;SDS011;6123;48.864;9.200;2022-12-18T00:48:56;26.17;;;21.35;;
12118;SDS011;6123;48.864;9.200;2022-12-18T00:51:22;26.92;;;21.60;;
12118;SDS011;6123;48.864;9.200;2022-12-18T00:53:48;26.63;;;20.73;;
12118;SDS011;6123;48.864;9.200;2022-12-18T00:56:14;24.75;;;21.08;;
12118;SDS011;6123;48.864;9.200;2022-12-18T00:58:40;32.80;;;24.10;;
12118;SDS011;6123;48.864;9.200;2022-12-18T01:01:05;32.50;;;24.38;;
12118;SDS011;6123;48.864;9.200;2022-12-18T01:03:34;32.78;;;25.15;;
12118;SDS011;6123;48.864;9.200;2022-12-18T01:06:04;32.10;;;22.52;;
12118;SDS011;6123;48.864;9.200;2022-12-18T01:08:31;34.65;;;25.48;;
12118;SDS011;6123;48.864;9.200;2022-12-18T01:10:59;29.30;;;22.00;;
12118;SDS011;6123;48.864;9.200;2022-12-18T01:13:25;37.15;;;27.10;;
12118;SDS011;6123;48.864;9.200;2022-12-18T01:15:53;34.35;;;26.00;;
12118;SDS011;6123;48.864;9.200;2022-12-18T01:18:21;32.25;;;23.45;;
12118;SDS011;6123;48.864;9.200;2022-12-18T01:20:46;35.95;;;26.85;;
12118;SDS011;6123;48.864;9.200;2022-12-18T01:23:12;35.83;;;25.55;;
12118;SDS011;6123;48.864;9.200;2022-12-18T01:25:40;34.95;;;25.42;;
12118;SDS011;6123;48.864;9.200;2022-12-18T01:28:06;36.45;;;25.27;;
12118;SDS011;6123;48.864;9.200;2022-12-18T01:30:31;35.78;;;26.05;;
12118;SDS011;6123;48.864;9.200;2022-12-18T01:32:57;39.92;;;26.95;;
12118;SDS011;6123;48.864;9.200;2022-12-18T01:35:22;31.17;;;23.63;;
12118;SDS011;6123;48.864;9.200;2022-12-18T01:37:48;34.95;;;24.13;;
12118;SDS011;6123;48.864;9.200;2022-12-18T01:40:16;35.22;;;26.08;;
12118;SDS011;6123;48.864;9.200;2022-12-18T01:42:41;33.33;;;23.42;;
12118;SDS011;6123;48.864;9.200;2022-12-18T01:47:46;33.33;;;24.33;;
12118;SDS011;6123;48.864;9.200;2022-12-18T01:50:16;31.20;;;23.00;;
12118;SDS011;6123;48.864;9.200;2022-12-18T01:52:43;31.33;;;24.75;;
12118;SDS011;6123;48.864;9.200;2022-12-18T01:55:12;29.70;;;22.88;;
12118;SDS011;6123;48.864;9.200;2022-12-18T01:57:41;36.53;;;27.00;;
12118;SDS011;6123;48.864;9.200;2022-12-18T02:00:09;37.45;;;26.67;;
12118;SDS011;6123;48.864;9.200;2022-12-18T02:02:37;32.58;;;24.13;;
12118;SDS011;6123;48.864;9.200;2022-12-18T02:05:03;34.10;;;24.58;;
12118;SDS011;6123;48.864;9.200;2022-12-18T02:10:11;33.45;;;24.17;;
12118;SDS011;6123;48.864;9.200;2022-12-18T02:15:11;29.52;;;22.45;;
12118;SDS011;6123;48.864;9.200;2022-12-18T02:17:47;31.35;;;22.75;;
12118;SDS011;6123;48.864;9.200;2022-12-18T02:20:21;36.47;;;22.55;;
12118;SDS011;6123;48.864;9.200;2022-12-18T02:28:37;31.63;;;24.08;;
12118;SDS011;6123;48.864;9.200;2022-12-18T02:31:14;30.02;;;21.42;;
12118;SDS011;6123;48.864;9.200;2022-12-18T02:33:44;30.90;;;22.80;;
12118;SDS011;6123;48.864;9.200;2022-12-18T02:36:11;31.20;;;22.48;;
12118;SDS011;6123;48.864;9.200;2022-12-18T02:38:40;33.92;;;23.92;;
12118;SDS011;6123;48.864;9.200;2022-12-18T02:41:10;32.65;;;22.63;;
12118;SDS011;6123;48.864;9.200;2022-12-18T02:43:38;32.20;;;22.88;;
12118;SDS011;6123;48.864;9.200;2022-12-18T02:48:55;34.08;;;23.27;;
12118;SDS011;6123;48.864;9.200;2022-12-18T02:51:45;28.15;;;20.70;;
12118;SDS011;6123;48.864;9.200;2022-12-18T02:54:20;31.15;;;23.27;;
12118;SDS011;6123;48.864;9.200;2022-12-18T02:57:02;30.85;;;23.77;;
12118;SDS011;6123;48.864;9.200;2022-12-18T02:59:45;31.30;;;21.42;;
12118;SDS011;6123;48.864;9.200;2022-12-18T03:02:22;26.33;;;19.75;;
12118;SDS011;6123;48.864;9.200;2022-12-18T03:08:18;29.02;;;21.77;;
12118;SDS011;6123;48.864;9.200;2022-12-18T03:13:33;26.80;;;20.90;;
12118;SDS011;6123;48.864;9.200;2022-12-18T03:16:18;25.83;;;19.17;;
12118;SDS011;6123;48.864;9.200;2022-12-18T03:18:54;27.77;;;20.27;;
12118;SDS011;6123;48.864;9.200;2022-12-18T03:21:26;26.55;;;20.30;;
12118;SDS011;6123;48.864;9.200;2022-12-18T03:23:58;23.38;;;18.95;;
12118;SDS011;6123;48.864;9.200;2022-12-18T03:26:25;28.17;;;20.27;;
12118;SDS011;6123;48.864;9.200;2022-12-18T03:28:59;25.77;;;19.30;;
12118;SDS011;6123;48.864;9.200;2022-12-18T03:31:29;27.08;;;19.67;;
12118;SDS011;6123;48.864;9.200;2022-12-18T03:33:58;27.45;;;21.00;;
12118;SDS011;6123;48.864;9.200;2022-12-18T03:36:31;24.70;;;19.02;;
12118;SDS011;6123;48.864;9.200;2022-12-18T03:38:57;22.20;;;17.58;;
12118;SDS011;6123;48.864;9.200;2022-12-18T03:46:40;25.20;;;19.98;;
12118;SDS011;6123;48.864;9.200;2022-12-18T03:49:23;20.65;;;17.05;;
12118;SDS011;6123;48.864;9.200;2022-12-18T03:52:11;22.90;;;17.58;;
12118;SDS011;6123;48.864;9.200;2022-12-18T03:54:43;23.17;;;17.83;;
12118;SDS011;6123;48.864;9.200;2022-12-18T03:57:11;21.58;;;17.30;;
12118;SDS011;6123;48.864;9.200;2022-12-18T03:59:43;24.58;;;17.65;;
12118;SDS011;6123;48.864;9.200;2022-12-18T04:02:10;23.00;;;17.65;;
12118;SDS011;6123;48.864;9.200;2022-12-18T04:04:37;20.58;;;17.75;;
12118;SDS011;6123;48.864;9.200;2022-12-18T04:07:04;22.02;;;17.48;;
12118;SDS011;6123;48.864;9.200;2022-12-18T04:09:34;21.52;;;16.33;;
12118;SDS011;6123;48.864;9.200;2022-12-18T04:12:06;20.50;;;16.70;;
12118;SDS011;6123;48.864;9.200;2022-12-18T04:14:31;21.75;;;16.88;;
12118;SDS011;6123;48.864;9.200;2022-12-18T04:17:00;21.95;;;17.33;;
12118;SDS011;6123;48.864;9.200;2022-12-18T04:19:28;19.98;;;15.80;;
12118;SDS011;6123;48.864;9.200;2022-12-18T04:21:54;20.55;;;16.88;;
12118;SDS011;6123;48.864;9.200;2022-12-18T04:24:20;20.60;;;16.77;;
12118;SDS011;6123;48.864;9.200;2022-12-18T04:26:45;22.55;;;16.95;;
12118;SDS011;6123;48.864;9.200;2022-12-18T04:29:11;20.65;;;16.63;;
12118;SDS011;6123;48.864;9.200;2022-12-18T04:31:39;22.23;;;17.55;;
12118;SDS011;6123;48.864;9.200;2022-12-18T04:34:05;19.90;;;16.10;;
12118;SDS011;6123;48.864;9.200;2022-12-18T04:36:30;20.75;;;16.00;;
12118;SDS011;6123;48.864;9.200;2022-12-18T04:38:56;21.45;;;16.17;;
12118;SDS011;6123;48.864;9.200;2022-12-18T04:41:21;18.80;;;14.98;;
12118;SDS011;6123;48.864;9.200;2022-12-18T04:43:47;20.70;;;15.80;;
12118;SDS011;6123;48.864;9.200;2022-12-18T04:46:13;24.58;;;16.75;;
12118;SDS011;6123;48.864;9.200;2022-12-18T04:48:38;21.50;;;16.48;;
12118;SDS011;6123;48.864;9.200;2022-12-18T04:51:04;22.10;;;17.27;;
12118;SDS011;6123;48.864;9.200;2022-12-18T04:53:30;22.55;;;18.00;;
12118;SDS011;6123;48.864;9.200;2022-12-18T04:56:06;22.58;;;16.75;;
12118;SDS011;6123;48.864;9.200;2022-12-18T04:58:34;21.02;;;16.58;;
12118;SDS011;6123;48.864;9.200;2022-12-18T05:01:00;20.83;;;17.02;;
12118;SDS011;6123;48.864;9.200;2022-12-18T05:03:26;24.60;;;17.98;;
12118;SDS011;6123;48.864;9.200;2022-12-18T05:05:52;20.90;;;16.92;;
12118;SDS011;6123;48.864;9.200;2022-12-18T05:08:21;22.48;;;17.92;;
12118;SDS011;6123;48.864;9.200;2022-12-18T05:10:46;22.27;;;17.83;;
12118;SDS011;6123;48.864;9.200;2022-12-18T05:13:14;26.10;;;18.65;;
12118;SDS011;6123;48.864;9.200;2022-12-18T05:15:40;22.33;;;18.20;;
12118;SDS011;6123;48.864;9.200;2022-12-18T05:18:07;22.35;;;17.23;;
12118;SDS011;6123;48.864;9.200;2022-12-18T05:20:32;23.50;;;17.50;;
12118;SDS011;6123;48.864;9.200;2022-12-18T05:22:58;21.20;;;16.95;;
12118;SDS011;6123;48.864;9.200;2022-12-18T05:25:24;21.55;;;16.45;;
12118;SDS011;6123;48.864;9.200;2022-12-18T05:27:52;21.02;;;16.17;;
12118;SDS011;6123;48.864;9.200;2022-12-18T05:30:18;25.88;;;18.25;;
12118;SDS011;6123;48.864;9.200;2022-12-18T05:32:43;20.60;;;16.17;;
12118;SDS011;6123;48.864;9.200;2022-12-18T05:35:10;23.08;;;17.13;;
12118;SDS011;6123;48.864;9.200;2022-12-18T05:37:36;23.80;;;17.02;;
12118;SDS011;6123;48.864;9.200;2022-12-18T05:40:02;19.10;;;16.23;;
12118;SDS011;6123;48.864;9.200;2022-12-18T05:42:29;21.92;;;16.05;;
12118;SDS011;6123;48.864;9.200;2022-12-18T05:44:55;26.25;;;18.80;;
12118;SDS011;6123;48.864;9.200;2022-12-18T05:47:21;22.40;;;16.42;;
12118;SDS011;6123;48.864;9.200;2022-12-18T05:49:47;22.17;;;17.25;;
12118;SDS011;6123;48.864;9.200;2022-12-18T05:52:12;23.85;;;17.23;;
12118;SDS011;6123;48.864;9.200;2022-12-18T05:54:40;23.50;;;17.35;;
12118;SDS011;6123;48.864;9.200;2022-12-18T05:57:05;23.50;;;17.20;;
12118;SDS011;6123;48.864;9.200;2022-12-18T05:59:31;23.95;;;17.08;;
12118;SDS011;6123;48.864;9.200;2022-12-18T06:01:59;23.13;;;16.98;;
12118;SDS011;6123;48.864;9.200;2022-12-18T06:04:26;23.42;;;15.85;;
12118;SDS011;6123;48.864;9.200;2022-12-18T06:06:53;26.50;;;17.70;;
12118;SDS011;6123;48.864;9.200;2022-12-18T06:09:19;23.60;;;16.35;;
12118;SDS011;6123;48.864;9.200;2022-12-18T06:11:47;22.13;;;17.08;;
12118;SDS011;6123;48.864;9.200;2022-12-18T06:14:12;21.88;;;16.25;;
12118;SDS011;6123;48.864;9.200;2022-12-18T06:16:38;24.63;;;18.63;;
12118;SDS011;6123;48.864;9.200;2022-12-18T06:19:04;23.38;;;16.77;;
12118;SDS011;6123;48.864;9.200;2022-12-18T06:21:33;19.88;;;16.52;;
12118;SDS011;6123;48.864;9.200;2022-12-18T06:24:01;20.83;;;16.25;;
12118;SDS011;6123;48.864;9.200;2022-12-18T06:26:26;21.27;;;16.48;;
12118;SDS011;6123;48.864;9.200;2022-12-18T06:28:52;22.85;;;17.33;;
12118;SDS011;6123;48.864;9.200;2022-12-18T06:31:17;19.65;;;15.15;;
12118;SDS011;6123;48.864;9.200;2022-12-18T06:33:45;20.05;;;15.38;;
12118;SDS011;6123;48.864;9.200;2022-12-18T06:36:13;21.30;;;16.48;;
12118;SDS011;6123;48.864;9.200;2022-12-18T06:38:41;19.40;;;14.70;;
12118;SDS011;6123;48.864;9.200;2022-12-18T06:41:08;20.17;;;15.48;;
12118;SDS011;6123;48.864;9.200;2022-12-18T06:43:34;21.63;;;16.77;;
12118;SDS011;6123;48.864;9.200;2022-12-18T06:46:00;22.83;;;17.00;;
12118;SDS011;6123;48.864;9.200;2022-12-18T06:48:29;20.85;;;16.60;;
12118;SDS011;6123;48.864;9.200;2022-12-18T06:50:54;20.63;;;15.20;;
12118;SDS011;6123;48.864;9.200;2022-12-18T06:53:22;20.52;;;15.30;;
12118;SDS011;6123;48.864;9.200;2022-12-18T06:55:48;20.60;;;15.57;;
12118;SDS011;6123;48.864;9.200;2022-12-18T06:58:14;22.58;;;16.63;;
12118;SDS011;6123;48.864;9.200;2022-12-18T07:00:39;22.40;;;16.05;;
12118;SDS011;6123;48.864;9.200;2022-12-18T07:03:05;19.95;;;15.63;;
12118;SDS011;6123;48.864;9.200;2022-12-18T07:05:32;19.95;;;15.32;;
12118;SDS011;6123;48.864;9.200;2022-12-18T07:07:58;25.25;;;16.50;;
12118;SDS011;6123;48.864;9.200;2022-12-18T07:10:23;20.38;;;15.13;;
12118;SDS011;6123;48.864;9.200;2022-12-18T07:12:52;22.10;;;15.80;;
12118;SDS011;6123;48.864;9.200;2022-12-18T07:15:17;21.35;;;15.93;;
12118;SDS011;6123;48.864;9.200;2022-12-18T07:17:43;22.17;;;19.77;;
12118;SDS011;6123;48.864;9.200;2022-12-18T07:20:09;22.25;;;17.63;;
12118;SDS011;6123;48.864;9.200;2022-12-18T07:22:35;21.63;;;17.02;;
12118;SDS011;6123;48.864;9.200;2022-12-18T07:25:00;20.38;;;16.05;;
12118;SDS011;6123;48.864;9.200;2022-12-18T07:27:26;19.73;;;14.82;;
12118;SDS011;6123;48.864;9.200;2022-12-18T07:29:52;20.23;;;15.75;;
12118;SDS011;6123;48.864;9.200;2022-12-18T07:32:20;21.15;;;15.63;;
12118;SDS011;6123;48.864;9.200;2022-12-18T07:34:45;19.50;;;15.18;;
12118;SDS011;6123;48.864;9.200;2022-12-18T07:37:11;19.33;;;15.13;;
12118;SDS011;6123;48.864;9.200;2022-12-18T07:39:36;17.35;;;14.27;;
12118;SDS011;6123;48.864;9.200;2022-12-18T07:42:02;19.77;;;15.48;;
12118;SDS011;6123;48.864;9.200;2022-12-18T07:44:46;16.95;;;14.13;;
12118;SDS011;6123;48.864;9.200;2022-12-18T07:47:14;20.05;;;15.90;;
12118;SDS011;6123;48.864;9.200;2022-12-18T07:49:40;18.23;;;15.00;;
12118;SDS011;6123;48.864;9.200;2022-12-18T07:52:08;17.13;;;14.20;;
12118;SDS011;6123;48.864;9.200;2022-12-18T07:54:34;16.88;;;14.25;;
12118;SDS011;6123;48.864;9.200;2022-12-18T07:57:02;21.35;;;17.15;;
12118;SDS011;6123;48.864;9.200;2022-12-18T07:59:28;17.65;;;14.30;;
12118;SDS011;6123;48.864;9.200;2022-12-18T08:01:53;16.95;;;14.23;;
12118;SDS011;6123;48.864;9.200;2022-12-18T08:04:19;17.15;;;14.73;;
12118;SDS011;6123;48.864;9.200;2022-12-18T08:06:45;17.85;;;14.52;;
12118;SDS011;6123;48.864;9.200;2022-12-18T08:09:10;17.92;;;15.00;;
12118;SDS011;6123;48.864;9.200;2022-12-18T08:11:38;18.48;;;14.65;;
12118;SDS011;6123;48.864;9.200;2022-12-18T08:14:04;21.80;;;16.52;;
12118;SDS011;6123;48.864;9.200;2022-12-18T08:16:32;18.98;;;14.82;;
12118;SDS011;6123;48.864;9.200;2022-12-18T08:18:58;18.52;;;14.90;;
12118;SDS011;6123;48.864;9.200;2022-12-18T08:21:24;19.58;;;15.88;;
12118;SDS011;6123;48.864;9.200;2022-12-18T08:23:55;20.52;;;15.57;;
12118;SDS011;6123;48.864;9.200;2022-12-18T08:26:22;22.08;;;16.67;;
12118;SDS011;6123;48.864;9.200;2022-12-18T08:28:49;17.10;;;14.30;;
12118;SDS011;6123;48.864;9.200;2022-12-18T08:31:15;18.67;;;15.30;;
12118;SDS011;6123;48.864;9.200;2022-12-18T08:33:43;19.40;;;15.77;;
12118;SDS011;6123;48.864;9.200;2022-12-18T08:36:09;18.30;;;14.48;;
12118;SDS011;6123;48.864;9.200;2022-12-18T08:38:35;19.90;;;16.17;;
12118;SDS011;6123;48.864;9.200;2022-12-18T08:41:01;22.02;;;16.75;;
12118;SDS011;6123;48.864;9.200;2022-12-18T08:43:28;20.63;;;16.30;;
12118;SDS011;6123;48.864;9.200;2022-12-18T08:46:20;17.75;;;14.50;;
12118;SDS011;6123;48.864;9.200;2022-12-18T08:48:47;21.15;;;16.63;;
12118;SDS011;6123;48.864;9.200;2022-12-18T08:51:18;19.85;;;16.83;;
12118;SDS011;6123;48.864;9.200;2022-12-18T08:53:44;19.33;;;15.57;;
12118;SDS011;6123;48.864;9.200;2022-12-18T08:56:10;19.95;;;15.85;;
12118;SDS011;6123;48.864;9.200;2022-12-18T08:58:39;20.00;;;15.85;;
12118;SDS011;6123;48.864;9.200;2022-12-18T09:01:07;21.13;;;15.65;;
12118;SDS011;6123;48.864;9.200;2022-12-18T09:03:34;20.00;;;15.35;;
12118;SDS011;6123;48.864;9.200;2022-12-18T09:06:03;22.17;;;15.73;;
12118;SDS011;6123;48.864;9.200;2022-12-18T09:08:34;20.48;;;17.02;;
12118;SDS011;6123;48.864;9.200;2022-12-18T09:11:01;23.25;;;17.13;;
12118;SDS011;6123;48.864;9.200;2022-12-18T09:13:27;18.23;;;15.02;;
12118;SDS011;6123;48.864;9.200;2022-12-18T09:15:54;22.05;;;16.77;;
12118;SDS011;6123;48.864;9.200;2022-12-18T09:18:20;22.42;;;17.67;;
12118;SDS011;6123;48.864;9.200;2022-12-18T09:20:48;20.58;;;16.98;;
12118;SDS011;6123;48.864;9.200;2022-12-18T09:23:15;20.48;;;16.23;;
12118;SDS011;6123;48.864;9.200;2022-12-18T09:25:43;20.75;;;16.27;;
12118;SDS011;6123;48.864;9.200;2022-12-18T09:28:15;20.52;;;15.75;;
12118;SDS011;6123;48.864;9.200;2022-12-18T09:30:46;18.20;;;16.10;;
12118;SDS011;6123;48.864;9.200;2022-12-18T09:33:17;21.85;;;17.38;;
12118;SDS011;6123;48.864;9.200;2022-12-18T09:35:44;20.30;;;16.52;;
12118;SDS011;6123;48.864;9.200;2022-12-18T09:38:19;20.40;;;16.27;;
12118;SDS011;6123;48.864;9.200;2022-12-18T09:40:49;20.92;;;16.55;;
12118;SDS011;6123;48.864;9.200;2022-12-18T09:43:32;20.40;;;16.90;;
12118;SDS011;6123;48.864;9.200;2022-12-18T09:46:01;19.95;;;15.88;;
12118;SDS011;6123;48.864;9.200;2022-12-18T09:48:32;20.45;;;16.05;;
12118;SDS011;6123;48.864;9.200;2022-12-18T09:51:05;21.98;;;17.48;;
12118;SDS011;6123;48.864;9.200;2022-12-18T09:53:40;19.13;;;16.10;;
12118;SDS011;6123;48.864;9.200;2022-12-18T09:56:11;21.15;;;16.25;;
12118;SDS011;6123;48.864;9.200;2022-12-18T09:59:15;20.92;;;17.20;;
12118;SDS011;6123;48.864;9.200;2022-12-18T10:01:42;22.10;;;17.98;;
12118;SDS011;6123;48.864;9.200;2022-12-18T10:04:08;23.73;;;20.10;;
12118;SDS011;6123;48.864;9.200;2022-12-18T10:14:48;22.30;;;17.25;;
12118;SDS011;6123;48.864;9.200;2022-12-18T10:19:52;22.02;;;17.55;;
12118;SDS011;6123;48.864;9.200;2022-12-18T10:25:34;21.23;;;16.40;;
12118;SDS011;6123;48.864;9.200;2022-12-18T10:28:15;19.80;;;16.45;;
12118;SDS011;6123;48.864;9.200;2022-12-18T10:30:43;21.38;;;17.42;;
12118;SDS011;6123;48.864;9.200;2022-12-18T10:33:11;21.23;;;17.17;;
12118;SDS011;6123;48.864;9.200;2022-12-18T10:35:59;21.52;;;17.65;;
12118;SDS011;6123;48.864;9.200;2022-12-18T10:38:28;23.90;;;18.98;;
12118;SDS011;6123;48.864;9.200;2022-12-18T10:40:57;22.15;;;17.58;;
12118;SDS011;6123;48.864;9.200;2022-12-18T10:46:13;19.65;;;16.50;;
12118;SDS011;6123;48.864;9.200;2022-12-18T10:51:20;20.77;;;15.82;;
12118;SDS011;6123;48.864;9.200;2022-12-18T10:54:15;21.35;;;17.85;;
12118;SDS011;6123;48.864;9.200;2022-12-18T10:56:46;20.27;;;16.38;;
12118;SDS011;6123;48.864;9.200;2022-12-18T10:59:16;22.33;;;16.38;;
12118;SDS011;6123;48.864;9.200;2022-12-18T11:04:24;18.25;;;14.75;;
12118;SDS011;6123;48.864;9.200;2022-12-18T11:07:00;21.13;;;17.05;;
12118;SDS011;6123;48.864;9.200;2022-12-18T11:11:59;19.40;;;15.73;;
12118;SDS011;6123;48.864;9.200;2022-12-18T11:14:28;19.10;;;15.90;;
12118;SDS011;6123;48.864;9.200;2022-12-18T11:16:57;18.38;;;15.68;;
12118;SDS011;6123;48.864;9.200;2022-12-18T11:22:02;20.88;;;17.15;;
12118;SDS011;6123;48.864;9.200;2022-12-18T11:24:50;19.50;;;16.05;;
12118;SDS011;6123;48.864;9.200;2022-12-18T11:27:30;19.73;;;16.05;;
12118;SDS011;6123;48.864;9.200;2022-12-18T11:32:49;19.52;;;16.15;;
12118;SDS011;6123;48.864;9.200;2022-12-18T11:40:50;19.52;;;15.95;;
12118;SDS011;6123;48.864;9.200;2022-12-18T11:43:28;18.98;;;16.58;;
12118;SDS011;6123;48.864;9.200;2022-12-18T11:46:06;21.30;;;16.73;;
12118;SDS011;6123;48.864;9.200;2022-12-18T11:51:38;19.13;;;16.50;;
12118;SDS011;6123;48.864;9.200;2022-12-18T11:54:12;18.95;;;16.25;;
12118;SDS011;6123;48.864;9.200;2022-12-18T11:56:43;20.05;;;16.60;;
12118;SDS011;6123;48.864;9.200;2022-12-18T12:17:45;20.75;;;17.48;;
12118;SDS011;6123;48.864;9.200;2022-12-18T12:20:20;20.42;;;16.85;;
12118;SDS011;6123;48.864;9.200;2022-12-18T12:23:26;17.83;;;15.20;;
12118;SDS011;6123;48.864;9.200;2022-12-18T12:29:18;18.77;;;16.30;;
12118;SDS011;6123;48.864;9.200;2022-12-18T12:40:20;21.27;;;16.67;;
12118;SDS011;6123;48.864;9.200;2022-12-18T12:42:54;19.60;;;16.38;;
12118;SDS011;6123;48.864;9.200;2022-12-18T12:45:42;19.48;;;15.77;;
12118;SDS011;6123;48.864;9.200;2022-12-18T12:48:19;18.05;;;15.73;;
12118;SDS011;6123;48.864;9.200;2022-12-18T12:50:49;19.10;;;16.77;;
12118;SDS011;6123;48.864;9.200;2022-12-18T12:53:23;19.90;;;16.75;;
12118;SDS011;6123;48.864;9.200;2022-12-18T12:55:52;19.83;;;17.05;;
12118;SDS011;6123;48.864;9.200;2022-12-18T12:58:23;19.05;;;15.50;;
12118;SDS011;6123;48.864;9.200;2022-12-18T13:01:04;21.25;;;17.85;;
12118;SDS011;6123;48.864;9.200;2022-12-18T13:04:01;18.88;;;15.82;;
12118;SDS011;6123;48.864;9.200;2022-12-18T13:09:05;20.30;;;16.73;;
12118;SDS011;6123;48.864;9.200;2022-12-18T13:11:35;20.40;;;18.13;;
12118;SDS011;6123;48.864;9.200;2022-12-18T13:14:21;21.20;;;18.30;;
12118;SDS011;6123;48.864;9.200;2022-12-18T13:16:53;20.58;;;17.25;;
12118;SDS011;6123;48.864;9.200;2022-12-18T13:25:02;18.92;;;16.33;;
12118;SDS011;6123;48.864;9.200;2022-12-18T13:27:57;19.35;;;16.92;;
12118;SDS011;6123;48.864;9.200;2022-12-18T13:40:59;18.17;;;15.60;;
12118;SDS011;6123;48.864;9.200;2022-12-18T13:46:01;20.02;;;16.05;;
12118;SDS011;6123;48.864;9.200;2022-12-18T13:48:31;17.58;;;14.63;;
12118;SDS011;6123;48.864;9.200;2022-12-18T13:56:23;17.17;;;15.10;;
12118;SDS011;6123;48.864;9.200;2022-12-18T13:59:03;18.63;;;15.80;;
12118;SDS011;6123;48.864;9.200;2022-12-18T14:01:55;18.83;;;15.32;;
12118;SDS011;6123;48.864;9.200;2022-12-18T14:07:03;21.38;;;16.13;;
12118;SDS011;6123;48.864;9.200;2022-12-18T14:12:37;62.67;;;42.55;;
12118;SDS011;6123;48.864;9.200;2022-12-18T14:20:39;19.08;;;16.48;;
12118;SDS011;6123;48.864;9.200;2022-12-18T14:23:28;18.38;;;16.40;;
12118;SDS011;6123;48.864;9.200;2022-12-18T14:25:59;19.35;;;16.45;;
12118;SDS011;6123;48.864;9.200;2022-12-18T14:28:31;19.58;;;16.73;;
12118;SDS011;6123;48.864;9.200;2022-12-18T14:30:57;18.85;;;16.45;;
12118;SDS011;6123;48.864;9.200;2022-12-18T14:33:24;18.95;;;16.70;;
12118;SDS011;6123;48.864;9.200;2022-12-18T14:35:58;19.45;;;16.45;;
12118;SDS011;6123;48.864;9.200;2022-12-18T14:38:40;17.35;;;14.73;;
12118;SDS011;6123;48.864;9.200;2022-12-18T14:41:15;21.05;;;17.38;;
12118;SDS011;6123;48.864;9.200;2022-12-18T14:43:43;20.60;;;18.02;;
12118;SDS011;6123;48.864;9.200;2022-12-18T14:49:01;19.23;;;16.55;;
12118;SDS011;6123;48.864;9.200;2022-12-18T14:51:50;19.77;;;17.25;;
12118;SDS011;6123;48.864;9.200;2022-12-18T14:54:20;20.40;;;17.35;;
12118;SDS011;6123;48.864;9.200;2022-12-18T14:57:03;19.27;;;17.20;;
12118;SDS011;6123;48.864;9.200;2022-12-18T14:59:31;19.63;;;17.55;;
12118;SDS011;6123;48.864;9.200;2022-12-18T15:04:40;22.25;;;19.08;;
12118;SDS011;6123;48.864;9.200;2022-12-18T15:09:35;20.80;;;18.05;;
12118;SDS011;6123;48.864;9.200;2022-12-18T15:12:01;20.02;;;17.52;;
12118;SDS011;6123;48.864;9.200;2022-12-18T15:16:56;21.92;;;17.65;;
12118;SDS011;6123;48.864;9.200;2022-12-18T15:22:39;20.38;;;17.55;;
12118;SDS011;6123;48.864;9.200;2022-12-18T15:25:02;20.45;;;17.55;;
12118;SDS011;6123;48.864;9.200;2022-12-18T15:27:45;21.58;;;17.80;;
12118;SDS011;6123;48.864;9.200;2022-12-18T15:30:16;24.45;;;20.13;;
12118;SDS011;6123;48.864;9.200;2022-12-18T15:32:43;27.03;;;24.33;;
12118;SDS011;6123;48.864;9.200;2022-12-18T15:37:45;21.58;;;18.88;;
12118;SDS011;6123;48.864;9.200;2022-12-18T15:40:18;25.38;;;20.17;;
12118;SDS011;6123;48.864;9.200;2022-12-18T15:42:48;23.80;;;19.83;;
12118;SDS011;6123;48.864;9.200;2022-12-18T15:45:34;22.77;;;19.17;;
12118;SDS011;6123;48.864;9.200;2022-12-18T15:48:09;26.75;;;22.55;;
12118;SDS011;6123;48.864;9.200;2022-12-18T15:50:43;28.52;;;23.98;;
12118;SDS011;6123;48.864;9.200;2022-12-18T15:53:09;27.65;;;22.48;;
12118;SDS011;6123;48.864;9.200;2022-12-18T15:55:34;27.88;;;22.52;;
12118;SDS011;6123;48.864;9.200;2022-12-18T15:58:19;32.22;;;25.10;;
12118;SDS011;6123;48.864;9.200;2022-12-18T16:00:45;32.33;;;23.48;;
12118;SDS011;6123;48.864;9.200;2022-12-18T16:03:11;38.40;;;27.42;;
12118;SDS011;6123;48.864;9.200;2022-12-18T16:05:39;27.42;;;22.45;;
12118;SDS011;6123;48.864;9.200;2022-12-18T16:08:07;26.17;;;22.77;;
12118;SDS011;6123;48.864;9.200;2022-12-18T16:10:32;24.33;;;21.65;;
12118;SDS011;6123;48.864;9.200;2022-12-18T16:13:00;26.83;;;22.10;;
12118;SDS011;6123;48.864;9.200;2022-12-18T16:15:26;25.55;;;21.50;;
12118;SDS011;6123;48.864;9.200;2022-12-18T16:17:52;27.17;;;22.25;;
12118;SDS011;6123;48.864;9.200;2022-12-18T16:20:21;25.50;;;21.80;;
12118;SDS011;6123;48.864;9.200;2022-12-18T16:22:49;30.83;;;23.73;;
12118;SDS011;6123;48.864;9.200;2022-12-18T16:27:43;24.98;;;20.95;;
12118;SDS011;6123;48.864;9.200;2022-12-18T16:30:16;31.58;;;25.38;;
12118;SDS011;6123;48.864;9.200;2022-12-18T16:32:43;29.23;;;24.65;;
12118;SDS011;6123;48.864;9.200;2022-12-18T16:35:10;29.17;;;24.10;;
12118;SDS011;6123;48.864;9.200;2022-12-18T16:37:37;26.05;;;22.63;;
12118;SDS011;6123;48.864;9.200;2022-12-18T16:40:09;32.83;;;25.83;;
12118;SDS011;6123;48.864;9.200;2022-12-18T16:42:37;31.08;;;25.05;;
12118;SDS011;6123;48.864;9.200;2022-12-18T16:45:05;30.25;;;24.70;;
12118;SDS011;6123;48.864;9.200;2022-12-18T16:47:32;29.55;;;24.98;;
12118;SDS011;6123;48.864;9.200;2022-12-18T16:49:58;26.20;;;21.90;;
12118;SDS011;6123;48.864;9.200;2022-12-18T16:52:24;28.67;;;23.80;;
12118;SDS011;6123;48.864;9.200;2022-12-18T16:54:49;33.20;;;24.05;;
12118;SDS011;6123;48.864;9.200;2022-12-18T16:57:18;24.63;;;20.38;;
12118;SDS011;6123;48.864;9.200;2022-12-18T16:59:47;28.48;;;22.45;;
12118;SDS011;6123;48.864;9.200;2022-12-18T17:02:19;28.88;;;23.83;;
12118;SDS011;6123;48.864;9.200;2022-12-18T17:04:49;26.17;;;20.80;;
12118;SDS011;6123;48.864;9.200;2022-12-18T17:07:18;27.25;;;21.63;;
12118;SDS011;6123;48.864;9.200;2022-12-18T17:09:47;31.15;;;23.88;;
12118;SDS011;6123;48.864;9.200;2022-12-18T17:12:14;26.42;;;21.83;;
12118;SDS011;6123;48.864;9.200;2022-12-18T17:14:42;27.17;;;22.00;;
12118;SDS011;6123;48.864;9.200;2022-12-18T17:17:11;24.98;;;22.17;;
12118;SDS011;6123;48.864;9.200;2022-12-18T17:19:39;24.92;;;20.85;;
12118;SDS011;6123;48.864;9.200;2022-12-18T17:22:05;25.60;;;20.63;;